This is the latest recevied weather packets stored in our database for station/object NR6G-5. If no packets are shown the sender has not sent any weather packets the latest 10 day(s).
| Time | Temp. | Humidity | Pressure | Rain* | Wind** | Luminosity | Snow |
|---|---|---|---|---|---|---|---|
| 1778059898 | 11.67° C | 88% | 1017.3 hPa | 0 mm | - | - | - |
| 1778059601 | 12.22° C | 88% | 1017.2 hPa | 0 mm | - | - | - |
| 1778059299 | 12.22° C | 87% | 1017.2 hPa | 0 mm | - | - | - |
| 1778058701 | 12.78° C | 84% | 1017.2 hPa | 0 mm | - | - | - |
| 1778058399 | 13.33° C | 82% | 1017.2 hPa | 0 mm | - | - | - |
| 1778058098 | 13.33° C | 81% | 1017.2 hPa | 0 mm | - | - | - |
| 1778057801 | 13.89° C | 80% | 1017.2 hPa | 0 mm | - | - | - |
| 1778057500 | 13.89° C | 80% | 1017.2 hPa | 0 mm | - | - | - |
| 1778057199 | 13.89° C | 81% | 1017.2 hPa | 0 mm | - | - | - |
| 1778056898 | 13.89° C | 81% | 1017.2 hPa | 0 mm | - | - | - |
| 1778056599 | 13.89° C | 81% | 1017.2 hPa | 0 mm | - | - | - |
| 1778056298 | 13.89° C | 81% | 1017.1 hPa | 0 mm | - | - | - |
| 1778055999 | 13.89° C | 81% | 1017.1 hPa | 0 mm | - | - | - |
| 1778055699 | 13.33° C | 82% | 1017.1 hPa | 0 mm | - | - | - |
| 1778055398 | 13.33° C | 82% | 1017.1 hPa | 0 mm | - | - | - |
| 1778055099 | 13.33° C | 82% | 1017.2 hPa | 0 mm | - | - | - |
| 1778054799 | 13.33° C | 82% | 1017.1 hPa | 0 mm | - | - | - |
| 1778053915 | 13.33° C | 84% | 1017 hPa | 0 mm | - | - | - |
| 1778053615 | 13.33° C | 84% | 1017 hPa | 0 mm | - | - | - |
| 1778053315 | 12.78° C | 84% | 1017 hPa | 0 mm | - | - | - |
| 1778053015 | 12.78° C | 85% | 1016.9 hPa | 0 mm | - | - | - |
| 1778052716 | 12.78° C | 85% | 1016.9 hPa | 0 mm | - | - | - |
| 1778052415 | 12.78° C | 85% | 1016.8 hPa | 0 mm | - | - | - |
| 1778052115 | 12.22° C | 86% | 1016.8 hPa | 0 mm | - | - | - |
| 1778051818 | 12.22° C | 85% | 1016.8 hPa | 0 mm | - | - | - |
* Rain latest hour (hover to see other rain measurements)
** Current wind speed in m/s (hover to see current wind gust speed)